createdAt,value
2022-08-25T00:00:13.513Z,40.92
2022-08-25T00:02:40.705Z,41.45
2022-08-25T00:05:18.671Z,41.52
2022-08-25T00:07:45.498Z,41.43
2022-08-25T00:10:12.705Z,41.67
2022-08-25T00:12:39.504Z,41.46
2022-08-25T00:15:07.257Z,42.19
2022-08-25T00:17:34.060Z,41.75
2022-08-25T00:20:00.910Z,42.09
2022-08-25T00:22:27.734Z,42.26
2022-08-25T00:24:54.538Z,41.96
2022-08-25T00:27:21.743Z,42.42
2022-08-25T00:29:48.541Z,42.60
2022-08-25T00:32:15.562Z,42.58
2022-08-25T00:34:42.417Z,42.72
2022-08-25T00:37:10.072Z,42.73
2022-08-25T00:39:38.863Z,42.67
2022-08-25T00:42:11.721Z,42.97
2022-08-25T00:44:43.973Z,42.59
2022-08-25T00:47:11.484Z,42.82
2022-08-25T00:49:58.839Z,42.89
2022-08-25T00:52:36.555Z,43.04
2022-08-25T00:55:18.702Z,43.10
2022-08-25T00:58:02.550Z,43.20
2022-08-25T01:00:39.490Z,43.32
2022-08-25T01:03:07.690Z,43.53
2022-08-25T01:05:35.570Z,43.35
2022-08-25T01:08:03.319Z,43.75
2022-08-25T01:10:38.446Z,43.78
2022-08-25T01:13:23.710Z,43.81
2022-08-25T01:15:56.109Z,43.98
2022-08-25T01:18:24.666Z,43.96
2022-08-25T01:20:55.228Z,44.00
2022-08-25T01:23:24.769Z,43.84
2022-08-25T01:26:15.344Z,44.08
2022-08-25T01:29:04.596Z,44.51
2022-08-25T01:31:32.992Z,44.57
2022-08-25T01:34:00.331Z,44.50
2022-08-25T01:36:29.743Z,44.51
2022-08-25T01:38:56.798Z,45.04
2022-08-25T01:42:06.547Z,45.06
2022-08-25T01:44:36.885Z,45.29
2022-08-25T01:47:06.009Z,45.46
2022-08-25T01:49:33.289Z,45.16
2022-08-25T01:52:11.338Z,45.04
2022-08-25T01:54:38.839Z,45.19
2022-08-25T01:57:06.367Z,45.37
2022-08-25T01:59:33.298Z,45.45
2022-08-25T02:02:00.397Z,45.43
2022-08-25T02:04:32.317Z,45.33
2022-08-25T02:07:01.499Z,45.15
2022-08-25T02:09:28.792Z,45.35
2022-08-25T02:11:56.771Z,45.75
2022-08-25T02:14:23.796Z,45.72
2022-08-25T02:16:53.754Z,45.54
2022-08-25T02:19:24.293Z,45.59
2022-08-25T02:21:51.549Z,45.75
2022-08-25T02:24:18.770Z,45.66
2022-08-25T02:26:46.165Z,46.01
2022-08-25T02:29:13.768Z,45.90
2022-08-25T02:31:41.904Z,46.10
2022-08-25T02:34:10.385Z,45.92
2022-08-25T02:36:39.125Z,46.29
2022-08-25T02:39:08.576Z,45.94
2022-08-25T02:41:35.642Z,46.14
2022-08-25T02:44:04.948Z,46.14
2022-08-25T02:46:32.126Z,46.28
2022-08-25T02:48:59.576Z,46.44
2022-08-25T02:51:31.900Z,46.34
2022-08-25T02:54:02.107Z,46.56
2022-08-25T02:56:31.428Z,46.23
2022-08-25T02:58:59.122Z,46.15
2022-08-25T03:01:28.690Z,46.56
2022-08-25T03:03:56.836Z,46.30
2022-08-25T03:06:24.511Z,46.47
2022-08-25T03:08:53.154Z,46.38
2022-08-25T03:11:21.448Z,46.06
2022-08-25T03:13:51.686Z,46.44
2022-08-25T03:16:20.245Z,46.58
2022-08-25T03:18:48.502Z,46.53
2022-08-25T03:21:16.469Z,47.15
2022-08-25T03:23:45.209Z,47.15
2022-08-25T03:26:30.985Z,47.07
2022-08-25T03:28:58.191Z,47.30
2022-08-25T03:31:27.592Z,47.53
2022-08-25T03:33:55.891Z,47.65
2022-08-25T03:36:23.234Z,47.73
2022-08-25T03:38:50.878Z,47.34
2022-08-25T03:41:29.102Z,47.59
2022-08-25T03:43:57.371Z,47.77
2022-08-25T03:46:47.295Z,47.85
2022-08-25T03:49:20.617Z,47.92
2022-08-25T03:51:52.623Z,48.04
2022-08-25T03:54:25.129Z,48.01
2022-08-25T03:56:52.851Z,47.66
2022-08-25T03:59:20.044Z,48.12
2022-08-25T04:01:52.627Z,48.36
2022-08-25T04:04:21.783Z,48.13
2022-08-25T04:06:48.623Z,48.19
2022-08-25T04:09:15.434Z,48.13
2022-08-25T04:11:42.722Z,48.34
2022-08-25T04:14:09.760Z,48.24
2022-08-25T04:16:43.350Z,48.50
2022-08-25T04:19:12.360Z,48.23
2022-08-25T04:21:41.356Z,48.54
2022-08-25T04:24:11.926Z,48.57
2022-08-25T04:26:49.730Z,48.75
2022-08-25T04:29:23.526Z,48.49
2022-08-25T04:31:52.002Z,49.16
2022-08-25T04:34:31.152Z,48.80
2022-08-25T04:37:05.397Z,48.80
2022-08-25T04:39:32.275Z,49.01
2022-08-25T04:42:00.651Z,49.24
2022-08-25T04:44:29.080Z,49.06
2022-08-25T04:46:56.686Z,49.22
2022-08-25T04:49:23.460Z,49.23
2022-08-25T04:51:50.514Z,49.29
2022-08-25T04:54:21.585Z,49.62
2022-08-25T04:56:54.410Z,49.54
2022-08-25T04:59:29.557Z,49.50
2022-08-25T05:01:58.967Z,49.84
2022-08-25T05:04:28.042Z,49.82
2022-08-25T05:06:57.122Z,49.90
2022-08-25T05:09:25.337Z,49.84
2022-08-25T05:11:53.532Z,49.69
2022-08-25T05:14:25.706Z,49.53
2022-08-25T05:16:54.550Z,49.56
2022-08-25T05:19:23.667Z,49.78
2022-08-25T05:21:51.095Z,49.87
2022-08-25T05:24:19.108Z,49.52
2022-08-25T05:26:46.191Z,49.93
2022-08-25T05:29:13.122Z,49.88
2022-08-25T05:31:44.022Z,49.71
2022-08-25T05:34:12.910Z,49.61
2022-08-25T05:36:43.244Z,49.46
2022-08-25T05:39:11.132Z,49.64
2022-08-25T05:41:38.572Z,49.72
2022-08-25T05:44:05.752Z,49.58
2022-08-25T05:46:33.377Z,49.86
2022-08-25T05:49:00.551Z,49.82
2022-08-25T05:51:27.626Z,49.90
2022-08-25T05:53:54.694Z,50.52
2022-08-25T05:56:21.956Z,50.02
2022-08-25T05:58:50.132Z,50.13
2022-08-25T06:01:45.200Z,49.83
2022-08-25T06:04:16.271Z,50.00
2022-08-25T06:06:43.617Z,50.01
2022-08-25T06:09:10.996Z,50.06
2022-08-25T06:11:40.512Z,50.01
2022-08-25T06:14:09.909Z,50.04
2022-08-25T06:16:38.784Z,49.92
2022-08-25T06:19:07.273Z,49.99
2022-08-25T06:21:34.315Z,49.90
2022-08-25T06:24:01.843Z,49.67
2022-08-25T06:26:28.648Z,49.34
2022-08-25T06:28:55.440Z,49.41
2022-08-25T06:31:22.974Z,49.77
2022-08-25T06:33:50.824Z,49.65
2022-08-25T06:36:19.165Z,49.64
2022-08-25T06:38:47.642Z,49.18
2022-08-25T06:41:16.457Z,49.40
2022-08-25T06:43:48.099Z,49.08
2022-08-25T06:46:20.487Z,49.30
2022-08-25T06:48:48.802Z,49.13
2022-08-25T06:51:19.454Z,49.09
2022-08-25T06:53:48.994Z,48.89
2022-08-25T06:56:21.697Z,48.83
2022-08-25T06:58:50.876Z,48.63
2022-08-25T07:01:25.748Z,48.21
2022-08-25T07:04:00.004Z,48.30
2022-08-25T07:06:31.768Z,47.98
2022-08-25T07:08:59.803Z,47.93
2022-08-25T07:11:26.675Z,48.03
2022-08-25T07:13:54.125Z,47.73
2022-08-25T07:16:21.946Z,47.51
2022-08-25T07:18:49.408Z,47.37
2022-08-25T07:21:18.788Z,47.40
2022-08-25T07:23:47.854Z,47.02
2022-08-25T07:26:37.286Z,46.91
2022-08-25T07:29:11.212Z,46.76
2022-08-25T07:31:38.387Z,46.42
2022-08-25T07:34:25.757Z,46.09
2022-08-25T07:36:55.138Z,45.76
2022-08-25T07:39:23.445Z,45.51
2022-08-25T07:41:51.914Z,45.37
2022-08-25T07:44:22.225Z,44.94
2022-08-25T07:46:51.003Z,44.68
2022-08-25T07:49:23.260Z,44.37
2022-08-25T07:52:05.188Z,44.42
2022-08-25T07:54:35.591Z,43.82
2022-08-25T07:57:07.902Z,43.83
2022-08-25T07:59:39.388Z,43.55
2022-08-25T08:02:18.586Z,43.38
2022-08-25T08:04:49.368Z,43.23
2022-08-25T08:07:41.139Z,42.63
2022-08-25T08:13:02.203Z,42.23
2022-08-25T08:15:30.400Z,42.37
2022-08-25T08:17:59.211Z,42.49
2022-08-25T08:20:27.149Z,42.08
2022-08-25T08:22:54.997Z,41.67
2022-08-25T08:25:26.605Z,41.59
2022-08-25T08:27:56.742Z,41.90
2022-08-25T08:30:26.089Z,41.69
2022-08-25T08:33:11.793Z,41.77
2022-08-25T08:35:40.865Z,41.32
2022-08-25T08:38:14.934Z,40.74
2022-08-25T08:41:23.013Z,41.09
2022-08-25T08:44:02.048Z,41.14
2022-08-25T08:47:17.686Z,41.07
2022-08-25T08:50:03.742Z,40.77
2022-08-25T08:52:48.889Z,40.01
2022-08-25T08:55:42.379Z,40.04
2022-08-25T08:58:30.696Z,40.07
2022-08-25T09:00:59.428Z,39.67
2022-08-25T09:03:47.001Z,39.52
2022-08-25T09:06:37.618Z,38.91
2022-08-25T09:09:08.018Z,38.77
2022-08-25T09:11:53.006Z,37.61
2022-08-25T09:14:57.231Z,37.10
2022-08-25T09:17:56.406Z,37.38
2022-08-25T09:20:46.801Z,37.36
2022-08-25T09:23:47.598Z,37.11
2022-08-25T09:26:36.261Z,37.18
2022-08-25T09:29:16.987Z,36.82
2022-08-25T09:31:44.997Z,36.87
2022-08-25T09:34:21.201Z,36.21
2022-08-25T09:36:50.796Z,36.48
2022-08-25T09:39:20.720Z,35.97
2022-08-25T09:41:52.023Z,35.79
2022-08-25T09:44:25.908Z,35.82
2022-08-25T09:47:02.116Z,34.96
2022-08-25T09:49:44.533Z,34.91
2022-08-25T09:52:35.337Z,34.78
2022-08-25T09:55:32.537Z,34.38
2022-08-25T09:58:00.197Z,33.87
2022-08-25T10:00:33.460Z,33.69
2022-08-25T10:03:24.595Z,33.49
2022-08-25T10:06:15.189Z,32.88
2022-08-25T10:08:44.759Z,32.98
2022-08-25T10:11:31.784Z,32.98
2022-08-25T10:14:27.929Z,32.37
2022-08-25T10:17:29.361Z,32.34
2022-08-25T10:20:11.650Z,32.21
2022-08-25T10:22:41.630Z,32.03
2022-08-25T10:25:13.379Z,32.41
2022-08-25T10:28:24.817Z,32.38
2022-08-25T10:31:24.690Z,31.68
2022-08-25T10:34:09.452Z,31.91
2022-08-25T10:37:09.351Z,32.04
2022-08-25T10:39:55.446Z,31.56
2022-08-25T10:42:53.870Z,32.16
2022-08-25T10:45:45.465Z,31.53
2022-08-25T10:48:50.554Z,31.96
2022-08-25T10:51:51.028Z,31.54
2022-08-25T10:54:45.617Z,31.64
2022-08-25T10:57:49.857Z,31.27
2022-08-25T11:00:23.625Z,31.80
2022-08-25T11:03:35.413Z,30.89
2022-08-25T11:06:15.609Z,30.62
2022-08-25T11:08:56.039Z,30.65
2022-08-25T11:11:45.996Z,30.54
2022-08-25T11:14:31.388Z,30.24
2022-08-25T11:17:27.243Z,30.80
2022-08-25T11:20:05.004Z,30.83
2022-08-25T11:23:06.679Z,30.37
2022-08-25T11:26:01.546Z,30.21
2022-08-25T11:28:39.994Z,29.46
2022-08-25T11:31:11.424Z,29.80
2022-08-25T11:33:39.271Z,29.32
2022-08-25T11:36:35.729Z,29.06
2022-08-25T11:39:32.998Z,28.97
2022-08-25T11:42:38.521Z,28.92
2022-08-25T11:45:16.406Z,28.66
2022-08-25T11:47:49.457Z,28.52
2022-08-25T11:50:55.109Z,28.45
2022-08-25T11:53:30.379Z,28.32
2022-08-25T11:56:05.526Z,27.86
2022-08-25T11:58:44.248Z,27.93
2022-08-25T12:01:39.129Z,28.04
2022-08-25T12:04:34.474Z,27.45
2022-08-25T12:07:13.558Z,27.54
2022-08-25T12:09:55.719Z,27.41
2022-08-25T12:12:57.459Z,27.70
2022-08-25T12:15:42.653Z,27.00
2022-08-25T12:18:11.629Z,27.04
2022-08-25T12:20:53.748Z,27.79
2022-08-25T12:23:44.885Z,27.78
2022-08-25T12:26:41.064Z,27.48
2022-08-25T12:29:31.964Z,27.11
2022-08-25T12:32:33.996Z,27.82
2022-08-25T12:35:40.312Z,27.21
2022-08-25T12:38:19.240Z,27.53
2022-08-25T12:40:46.015Z,27.50
2022-08-25T12:43:37.867Z,27.54
2022-08-25T12:46:22.944Z,27.77
2022-08-25T12:48:58.414Z,27.93
2022-08-25T12:51:48.829Z,28.08
2022-08-25T12:54:40.866Z,27.83
2022-08-25T12:57:42.889Z,28.57
2022-08-25T13:00:18.457Z,28.76
2022-08-25T13:03:24.914Z,28.66
2022-08-25T13:06:24.671Z,28.71
2022-08-25T13:09:38.169Z,29.34
2022-08-25T13:12:21.835Z,28.83
2022-08-25T13:14:57.798Z,28.81
2022-08-25T13:17:33.679Z,28.14
2022-08-25T13:20:26.052Z,28.43
2022-08-25T13:23:00.329Z,27.46
2022-08-25T13:25:32.134Z,27.20
2022-08-25T13:28:04.417Z,27.75
2022-08-25T13:30:36.702Z,27.44
2022-08-25T13:33:22.657Z,27.26
2022-08-25T13:36:14.580Z,27.45
2022-08-25T13:38:45.710Z,27.25
2022-08-25T13:41:29.206Z,27.23
2022-08-25T13:44:00.986Z,26.74
2022-08-25T13:46:29.687Z,26.91
2022-08-25T13:49:06.911Z,26.89
2022-08-25T13:51:37.568Z,26.37
2022-08-25T13:54:08.761Z,26.42
2022-08-25T13:56:42.304Z,26.15
2022-08-25T13:59:27.420Z,26.38
2022-08-25T14:01:56.147Z,25.88
2022-08-25T14:04:51.789Z,25.30
2022-08-25T14:07:22.634Z,25.25
2022-08-25T14:10:05.170Z,25.30
2022-08-25T14:12:41.866Z,25.21
2022-08-25T14:15:17.895Z,25.63
2022-08-25T14:18:04.729Z,26.02
2022-08-25T14:20:34.061Z,25.73
2022-08-25T14:23:12.808Z,25.57
2022-08-25T14:25:43.516Z,25.70
2022-08-25T14:28:15.322Z,25.70
2022-08-25T14:30:55.673Z,25.90
2022-08-25T14:33:29.920Z,25.54
2022-08-25T14:35:59.974Z,26.00
2022-08-25T14:38:27.053Z,26.05
2022-08-25T14:40:54.417Z,25.70
2022-08-25T14:43:24.176Z,25.71
2022-08-25T14:45:59.863Z,25.93
2022-08-25T14:48:35.340Z,25.99
2022-08-25T14:51:03.904Z,25.58
2022-08-25T14:53:30.809Z,26.14
2022-08-25T14:55:59.311Z,25.96
2022-08-25T14:58:32.476Z,25.99
2022-08-25T15:01:03.269Z,26.11
2022-08-25T15:03:36.186Z,26.66
2022-08-25T15:06:04.641Z,27.29
2022-08-25T15:08:51.999Z,26.99
2022-08-25T15:11:18.796Z,26.95
2022-08-25T15:13:49.210Z,27.61
2022-08-25T15:16:25.111Z,27.17
2022-08-25T15:19:06.713Z,27.16
2022-08-25T15:21:35.905Z,27.68
2022-08-25T15:24:05.591Z,27.98
2022-08-25T15:26:42.650Z,27.69
2022-08-25T15:29:10.129Z,28.40
2022-08-25T15:31:37.264Z,28.00
2022-08-25T15:34:04.158Z,28.46
2022-08-25T15:36:34.184Z,28.32
2022-08-25T15:39:03.979Z,28.58
2022-08-25T15:41:31.381Z,29.11
2022-08-25T15:44:00.337Z,28.83
2022-08-25T15:46:30.355Z,29.29
2022-08-25T15:48:59.574Z,29.10
2022-08-25T15:51:29.695Z,28.93
2022-08-25T15:53:57.959Z,28.92
2022-08-25T15:56:26.772Z,28.96
2022-08-25T15:58:55.311Z,28.78
2022-08-25T16:01:27.515Z,28.59
2022-08-25T16:03:57.502Z,29.01
2022-08-25T16:06:26.608Z,29.24
2022-08-25T16:08:54.040Z,28.97
2022-08-25T16:11:25.631Z,29.76
2022-08-25T16:13:54.183Z,29.29
2022-08-25T16:16:26.084Z,29.53
2022-08-25T16:18:53.963Z,29.72
2022-08-25T16:21:29.147Z,30.50
2022-08-25T16:24:04.405Z,30.07
2022-08-25T16:26:36.475Z,29.68
2022-08-25T16:29:06.464Z,30.20
2022-08-25T16:31:33.597Z,30.43
2022-08-25T16:34:01.424Z,29.88
2022-08-25T16:36:29.158Z,30.39
2022-08-25T16:38:57.633Z,30.33
2022-08-25T16:41:34.061Z,29.89
2022-08-25T16:44:07.573Z,29.66
2022-08-25T16:46:38.522Z,30.20
2022-08-25T16:49:08.852Z,30.25
2022-08-25T16:51:39.297Z,29.87
2022-08-25T16:54:26.439Z,30.24
2022-08-25T16:56:54.852Z,30.36
2022-08-25T16:59:23.743Z,30.25
2022-08-25T17:01:52.687Z,29.67
2022-08-25T17:04:20.770Z,29.39
2022-08-25T17:06:54.342Z,29.49
2022-08-25T17:09:22.878Z,29.91
2022-08-25T17:11:56.503Z,30.31
2022-08-25T17:14:23.538Z,30.47
2022-08-25T17:16:54.485Z,30.13
2022-08-25T17:19:22.098Z,29.99
2022-08-25T17:21:52.122Z,30.65
2022-08-25T17:24:19.295Z,30.62
2022-08-25T17:26:49.910Z,30.25
2022-08-25T17:29:19.483Z,30.43
2022-08-25T17:31:48.554Z,30.21
2022-08-25T17:34:16.928Z,30.69
2022-08-25T17:36:48.233Z,30.49
2022-08-25T17:39:18.159Z,30.69
2022-08-25T17:41:45.852Z,30.28
2022-08-25T17:44:13.988Z,30.97
2022-08-25T17:46:47.109Z,30.55
2022-08-25T17:49:15.991Z,31.20
2022-08-25T17:51:42.939Z,30.82
2022-08-25T17:54:10.147Z,31.44
2022-08-25T17:56:37.987Z,31.28
2022-08-25T17:59:04.869Z,31.13
2022-08-25T18:01:40.125Z,31.89
2022-08-25T18:04:16.982Z,31.51
2022-08-25T18:06:45.439Z,31.82
2022-08-25T18:09:12.722Z,32.13
2022-08-25T18:11:39.618Z,32.46
2022-08-25T18:14:06.440Z,32.35
2022-08-25T18:16:33.277Z,32.63
2022-08-25T18:19:01.711Z,32.91
2022-08-25T18:21:30.617Z,33.00
2022-08-25T18:23:58.757Z,32.77
2022-08-25T18:26:26.167Z,33.04
2022-08-25T18:28:53.293Z,33.12
2022-08-25T18:31:20.269Z,33.40
2022-08-25T18:33:47.727Z,33.28
2022-08-25T18:36:20.374Z,33.51
2022-08-25T18:39:06.850Z,33.39
2022-08-25T18:41:40.120Z,33.46
2022-08-25T18:44:08.335Z,33.66
2022-08-25T18:46:37.984Z,33.46
2022-08-25T18:49:05.650Z,33.58
2022-08-25T18:51:33.267Z,33.92
2022-08-25T18:54:01.583Z,33.81
2022-08-25T18:56:28.985Z,34.31
2022-08-25T18:58:57.000Z,34.07
2022-08-25T19:01:24.279Z,34.15
2022-08-25T19:03:51.783Z,34.46
2022-08-25T19:06:20.160Z,34.12
2022-08-25T19:08:48.539Z,34.10
2022-08-25T19:11:16.548Z,33.85
2022-08-25T19:13:44.707Z,34.33
2022-08-25T19:16:20.516Z,34.50
2022-08-25T19:18:50.069Z,34.63
2022-08-25T19:21:22.653Z,34.54
2022-08-25T19:23:51.365Z,34.71
2022-08-25T19:26:20.268Z,34.84
2022-08-25T19:28:49.563Z,34.26
2022-08-25T19:31:19.560Z,34.62
2022-08-25T19:33:49.089Z,34.64
2022-08-25T19:36:18.796Z,34.50
2022-08-25T19:38:52.353Z,34.78
2022-08-25T19:41:21.565Z,34.60
2022-08-25T19:43:56.513Z,34.31
2022-08-25T19:46:35.820Z,34.37
2022-08-25T19:49:09.174Z,34.14
2022-08-25T19:51:44.232Z,34.98
2022-08-25T19:54:18.792Z,34.94
2022-08-25T19:56:54.244Z,35.45
2022-08-25T19:59:42.506Z,35.24
2022-08-25T20:02:15.779Z,35.57
2022-08-25T20:04:49.657Z,35.78
2022-08-25T20:07:23.934Z,35.59
2022-08-25T20:09:52.382Z,35.60
2022-08-25T20:12:20.401Z,36.20
2022-08-25T20:14:49.862Z,36.19
2022-08-25T20:17:24.198Z,35.88
2022-08-25T20:19:57.181Z,36.34
2022-08-25T20:22:27.587Z,36.68
2022-08-25T20:25:01.134Z,36.59
2022-08-25T20:27:37.792Z,36.22
2022-08-25T20:30:10.328Z,36.37
2022-08-25T20:32:37.762Z,36.45
2022-08-25T20:35:09.056Z,36.19
2022-08-25T20:37:37.009Z,36.78
2022-08-25T20:40:06.964Z,36.61
2022-08-25T20:42:34.505Z,36.24
2022-08-25T20:45:01.877Z,36.48
2022-08-25T20:47:28.778Z,36.82
2022-08-25T20:49:58.133Z,36.92
2022-08-25T20:52:25.345Z,36.77
2022-08-25T20:54:53.212Z,36.58
2022-08-25T20:57:25.954Z,36.10
2022-08-25T20:59:54.694Z,36.28
2022-08-25T21:02:23.729Z,35.88
2022-08-25T21:04:51.685Z,36.16
2022-08-25T21:07:21.215Z,36.70
2022-08-25T21:09:51.659Z,36.61
2022-08-25T21:12:18.866Z,36.78
2022-08-25T21:14:45.782Z,36.89
2022-08-25T21:17:15.320Z,37.18
2022-08-25T21:19:46.083Z,37.81
2022-08-25T21:22:12.880Z,37.67
2022-08-25T21:24:39.751Z,37.77
2022-08-25T21:27:07.023Z,37.13
2022-08-25T21:29:34.258Z,36.90
2022-08-25T21:32:02.351Z,37.04
2022-08-25T21:34:31.057Z,38.12
2022-08-25T21:36:59.334Z,38.31
2022-08-25T21:39:28.116Z,37.91
2022-08-25T21:41:58.452Z,37.97
2022-08-25T21:44:27.424Z,37.70
2022-08-25T21:46:54.873Z,38.13
2022-08-25T21:49:23.432Z,37.66
2022-08-25T21:52:02.388Z,37.91
2022-08-25T21:54:31.958Z,38.36
2022-08-25T21:57:05.959Z,38.25
2022-08-25T21:59:40.509Z,37.80
2022-08-25T22:02:11.717Z,38.48
2022-08-25T22:04:39.531Z,38.64
2022-08-25T22:07:08.567Z,38.07
2022-08-25T22:09:36.820Z,38.35
2022-08-25T22:12:05.350Z,38.89
2022-08-25T22:14:32.982Z,39.08
2022-08-25T22:17:00.354Z,38.85
2022-08-25T22:19:27.507Z,38.83
2022-08-25T22:21:56.410Z,39.10
2022-08-25T22:24:27.974Z,39.01
2022-08-25T22:26:55.990Z,39.09
2022-08-25T22:29:25.397Z,39.67
2022-08-25T22:32:00.734Z,39.74
2022-08-25T22:34:32.537Z,39.84
2022-08-25T22:37:01.791Z,39.52
2022-08-25T22:39:32.235Z,39.79
2022-08-25T22:42:01.827Z,39.90
2022-08-25T22:44:29.015Z,40.34
2022-08-25T22:46:56.015Z,40.50
2022-08-25T22:49:23.592Z,40.23
2022-08-25T22:51:50.968Z,40.13
2022-08-25T22:54:18.242Z,40.24
2022-08-25T22:56:45.430Z,39.99
2022-08-25T22:59:14.213Z,40.61
2022-08-25T23:01:45.059Z,40.22
2022-08-25T23:04:13.568Z,40.53
2022-08-25T23:06:40.787Z,40.93
2022-08-25T23:09:10.863Z,40.43
2022-08-25T23:11:39.689Z,40.55
2022-08-25T23:14:10.850Z,40.76
2022-08-25T23:16:43.207Z,40.37
2022-08-25T23:19:14.749Z,40.88
2022-08-25T23:22:02.425Z,40.93
2022-08-25T23:24:30.973Z,40.39
2022-08-25T23:27:04.081Z,40.66
2022-08-25T23:29:34.257Z,41.22
2022-08-25T23:32:02.600Z,40.83
2022-08-25T23:34:29.709Z,41.37
2022-08-25T23:36:56.859Z,41.06
2022-08-25T23:39:23.851Z,40.88
2022-08-25T23:41:51.934Z,41.33
2022-08-25T23:44:21.016Z,41.34
2022-08-25T23:46:50.118Z,41.31
2022-08-25T23:49:19.914Z,41.34
2022-08-25T23:51:51.830Z,41.66
2022-08-25T23:54:21.352Z,41.41
2022-08-25T23:56:51.761Z,41.48
2022-08-25T23:59:24.411Z,41.71
